createdAt,value
2018-06-02T00:02:08.888Z,55.60
2018-06-02T00:05:11.955Z,55.10
2018-06-02T00:08:15.059Z,55.70
2018-06-02T00:11:18.148Z,57.50
2018-06-02T00:14:21.265Z,60.73
2018-06-02T00:17:24.333Z,61.40
2018-06-02T00:20:27.422Z,65.63
2018-06-02T00:23:30.505Z,69.80
2018-06-02T00:26:33.603Z,65.03
2018-06-02T00:29:36.691Z,71.23
2018-06-02T00:32:39.789Z,64.87
2018-06-02T00:35:43.709Z,62.10
2018-06-02T00:38:46.779Z,56.40
2018-06-02T00:41:49.863Z,59.47
2018-06-02T00:44:52.953Z,56.33
2018-06-02T00:47:56.045Z,56.00
2018-06-02T00:50:59.134Z,57.40
2018-06-02T00:54:02.347Z,57.77
2018-06-02T00:57:06.201Z,53.83
2018-06-02T01:00:09.437Z,55.13
2018-06-02T01:03:13.312Z,53.57
2018-06-02T01:06:16.392Z,57.67
2018-06-02T01:09:19.899Z,58.77
2018-06-02T01:12:23.045Z,56.43
2018-06-02T01:15:26.895Z,54.53
2018-06-02T01:18:29.971Z,57.03
2018-06-02T01:21:33.068Z,50.03
2018-06-02T01:24:36.148Z,52.73
2018-06-02T01:27:39.252Z,46.63
2018-06-02T01:30:42.328Z,46.73
2018-06-02T01:33:45.434Z,50.23
2018-06-02T01:36:48.508Z,41.70
2018-06-02T01:39:51.603Z,51.93
2018-06-02T01:42:54.679Z,48.10
2018-06-02T01:45:57.789Z,45.73
2018-06-02T01:49:00.870Z,49.50
2018-06-02T01:52:03.951Z,47.20
2018-06-02T01:55:07.025Z,47.50
2018-06-02T01:58:10.118Z,50.20
2018-06-02T02:01:13.192Z,49.13
2018-06-02T02:04:16.295Z,50.93
2018-06-02T02:07:19.376Z,50.27
2018-06-02T02:10:22.485Z,50.63
2018-06-02T02:13:25.575Z,49.60
2018-06-02T02:16:28.680Z,49.47
2018-06-02T02:19:31.760Z,48.80
2018-06-02T02:22:34.847Z,52.00
2018-06-02T02:25:37.936Z,50.13
2018-06-02T02:28:41.039Z,55.63
2018-06-02T02:31:44.106Z,52.80
2018-06-02T02:34:47.204Z,55.50
2018-06-02T02:37:50.270Z,54.87
2018-06-02T02:40:53.359Z,56.87
2018-06-02T02:43:56.434Z,61.07
2018-06-02T02:47:00.305Z,60.10
2018-06-02T02:50:03.385Z,58.77
2018-06-02T02:53:06.466Z,54.03
2018-06-02T02:56:09.553Z,60.47
2018-06-02T02:59:12.653Z,58.97
2018-06-02T03:02:15.715Z,52.67
2018-06-02T03:05:18.801Z,55.63
2018-06-02T03:08:21.889Z,45.87
2018-06-02T03:11:24.983Z,48.10
2018-06-02T03:14:28.064Z,54.07
2018-06-02T03:17:31.162Z,56.00
2018-06-02T03:20:34.242Z,53.40
2018-06-02T03:23:37.349Z,51.03
2018-06-02T03:26:40.423Z,56.13
2018-06-02T03:29:43.600Z,49.23
2018-06-02T03:32:46.651Z,52.17
2018-06-02T03:35:49.738Z,51.83
2018-06-02T03:38:52.823Z,52.83
2018-06-02T03:41:55.912Z,51.97
2018-06-02T03:44:58.991Z,48.37
2018-06-02T03:48:02.074Z,48.30
2018-06-02T03:51:05.143Z,48.13
2018-06-02T03:54:08.238Z,52.33
2018-06-02T03:57:11.310Z,50.67
2018-06-02T04:00:14.510Z,52.10
2018-06-02T04:03:18.404Z,50.40
2018-06-02T04:06:21.470Z,45.50
2018-06-02T04:09:24.550Z,43.83
2018-06-02T04:12:27.644Z,45.73
2018-06-02T04:15:30.715Z,45.90
2018-06-02T04:18:33.807Z,46.70
2018-06-02T04:21:36.890Z,47.23
2018-06-02T04:24:39.986Z,51.33
2018-06-02T04:27:43.067Z,43.53
2018-06-02T04:30:46.935Z,49.80
2018-06-02T04:33:50.006Z,44.83
2018-06-02T04:36:53.874Z,47.90
2018-06-02T04:39:56.952Z,49.47
2018-06-02T04:43:00.139Z,52.47
2018-06-02T04:46:03.218Z,51.13
2018-06-02T04:49:06.314Z,50.97
2018-06-02T04:52:09.384Z,45.60
2018-06-02T04:55:12.480Z,47.90
2018-06-02T04:58:15.554Z,49.47
2018-06-02T05:01:18.646Z,44.93
2018-06-02T05:04:21.759Z,42.77
2018-06-02T05:07:25.596Z,45.53
2018-06-02T05:10:28.677Z,47.17
2018-06-02T05:13:31.762Z,46.93
2018-06-02T05:16:34.843Z,41.63
2018-06-02T05:19:37.942Z,43.93
2018-06-02T05:22:41.204Z,46.07
2018-06-02T05:25:44.311Z,45.20
2018-06-02T05:28:47.390Z,45.33
2018-06-02T05:31:50.482Z,47.57
2018-06-02T05:34:53.649Z,45.47
2018-06-02T05:37:56.706Z,44.93
2018-06-02T05:40:59.782Z,46.00
2018-06-02T05:44:03.650Z,46.83
2018-06-02T05:47:06.719Z,47.40
2018-06-02T05:50:10.569Z,45.87
2018-06-02T05:53:13.644Z,44.97
2018-06-02T05:56:16.749Z,46.47
2018-06-02T05:59:19.823Z,46.37
2018-06-02T06:02:22.933Z,45.37
2018-06-02T06:05:26.083Z,46.50
2018-06-02T06:08:29.937Z,46.87
2018-06-02T06:11:33.014Z,44.93
2018-06-02T06:14:36.107Z,43.40
2018-06-02T06:17:39.182Z,46.13
2018-06-02T06:20:42.288Z,45.17
2018-06-02T06:23:45.361Z,43.57
2018-06-02T06:26:48.462Z,44.55
2018-06-02T06:29:51.526Z,43.97
2018-06-02T06:32:54.673Z,42.57
2018-06-02T06:35:57.703Z,42.87
2018-06-02T06:39:00.852Z,43.33
2018-06-02T06:42:03.921Z,44.72
2018-06-02T06:45:07.006Z,45.40
2018-06-02T06:48:10.095Z,42.63
2018-06-02T06:51:13.292Z,39.72
2018-06-02T06:54:16.372Z,39.03
2018-06-02T06:57:19.479Z,41.47
2018-06-02T07:00:22.534Z,35.60
2018-06-02T07:03:25.670Z,37.10
2018-06-02T07:06:28.746Z,34.15
2018-06-02T07:09:31.865Z,32.72
2018-06-02T07:12:35.706Z,32.33
2018-06-02T07:15:38.824Z,28.12
2018-06-02T07:18:41.882Z,28.92
2018-06-02T07:21:45.008Z,27.98
2018-06-02T07:24:48.085Z,28.58
2018-06-02T07:27:51.154Z,27.77
2018-06-02T07:30:54.230Z,29.27
2018-06-02T07:33:57.331Z,31.58
2018-06-02T07:37:00.406Z,28.95
2018-06-02T07:40:04.314Z,31.90
2018-06-02T07:43:07.367Z,33.90
2018-06-02T07:46:10.753Z,34.13
2018-06-02T07:49:13.817Z,32.97
2018-06-02T07:52:16.964Z,32.88
2018-06-02T07:55:20.015Z,34.08
2018-06-02T07:58:23.111Z,32.53
2018-06-02T08:01:26.178Z,32.40
2018-06-02T08:04:29.274Z,34.58
2018-06-02T08:07:32.350Z,33.20
2018-06-02T08:10:35.451Z,33.58
2018-06-02T08:13:38.529Z,30.88
2018-06-02T08:16:41.694Z,38.38
2018-06-02T08:19:44.738Z,35.47
2018-06-02T08:22:47.827Z,33.53
2018-06-02T08:25:50.905Z,34.45
2018-06-02T08:28:54.118Z,32.95
2018-06-02T08:31:57.190Z,32.25
2018-06-02T08:35:00.379Z,34.85
2018-06-02T08:38:03.450Z,33.22
2018-06-02T08:41:06.551Z,34.42
2018-06-02T08:44:09.621Z,35.67
2018-06-02T08:47:12.706Z,33.35
2018-06-02T08:50:15.775Z,33.20
2018-06-02T08:53:19.649Z,34.92
2018-06-02T08:56:22.723Z,50.72
2018-06-02T08:59:25.832Z,34.65
2018-06-02T09:02:28.886Z,34.70
2018-06-02T09:05:31.982Z,32.08
2018-06-02T09:08:35.136Z,32.22
2018-06-02T09:11:38.203Z,32.50
2018-06-02T09:14:41.280Z,30.83
2018-06-02T09:17:44.404Z,31.48
2018-06-02T09:20:48.313Z,32.22
2018-06-02T09:23:51.402Z,31.02
2018-06-02T09:26:54.457Z,30.50
2018-06-02T09:29:58.352Z,30.02
2018-06-02T09:33:01.434Z,27.15
2018-06-02T09:36:04.530Z,28.27
2018-06-02T09:39:07.619Z,27.95
2018-06-02T09:42:10.719Z,28.38
2018-06-02T09:45:14.159Z,28.83
2018-06-02T09:48:17.246Z,28.10
2018-06-02T09:51:20.304Z,26.73
2018-06-02T09:54:23.394Z,26.95
2018-06-02T09:57:26.467Z,31.15
2018-06-02T10:00:30.668Z,31.45
2018-06-02T10:03:33.752Z,33.90
2018-06-02T10:06:36.861Z,34.17
2018-06-02T10:09:39.941Z,34.97
2018-06-02T10:12:43.026Z,36.08
2018-06-02T10:15:46.129Z,36.83
2018-06-02T10:18:49.204Z,38.20
2018-06-02T10:21:52.356Z,36.55
2018-06-02T10:24:55.448Z,34.50
2018-06-02T10:27:58.509Z,36.60
2018-06-02T10:31:01.619Z,35.42
2018-06-02T10:34:05.547Z,38.55
2018-06-02T10:37:08.659Z,35.47
2018-06-02T10:40:11.728Z,35.90
2018-06-02T10:43:14.810Z,35.65
2018-06-02T10:46:17.888Z,37.53
2018-06-02T10:49:21.755Z,37.88
2018-06-02T10:52:24.839Z,34.45
2018-06-02T10:55:27.922Z,33.45
2018-06-02T10:58:31.000Z,34.45
2018-06-02T11:01:34.145Z,35.15
2018-06-02T11:04:37.176Z,34.67
2018-06-02T11:07:40.849Z,35.78
2018-06-02T11:10:43.898Z,33.70
2018-06-02T11:13:47.003Z,32.53
2018-06-02T11:16:50.078Z,32.25
2018-06-02T11:19:53.174Z,35.58
2018-06-02T11:22:56.256Z,32.00
2018-06-02T11:25:59.352Z,32.50
2018-06-02T11:29:02.435Z,32.38
2018-06-02T11:32:05.524Z,33.90
2018-06-02T11:35:08.594Z,35.67
2018-06-02T11:38:11.692Z,35.83
2018-06-02T11:41:14.862Z,37.00
2018-06-02T11:44:18.126Z,34.70
2018-06-02T11:47:21.262Z,36.92
2018-06-02T11:50:24.411Z,35.17
2018-06-02T11:53:27.467Z,37.58
2018-06-02T11:56:30.550Z,35.67
2018-06-02T11:59:33.618Z,34.20
2018-06-02T12:02:36.723Z,36.15
2018-06-02T12:05:39.802Z,35.40
2018-06-02T12:08:42.922Z,36.53
2018-06-02T12:11:46.006Z,32.67
2018-06-02T12:14:49.232Z,32.13
2018-06-02T12:17:52.290Z,31.25
2018-06-02T12:20:55.384Z,27.00
2018-06-02T12:23:58.454Z,26.12
2018-06-02T12:27:01.567Z,25.00
2018-06-02T12:30:04.674Z,25.30
2018-06-02T12:33:07.758Z,26.67
2018-06-02T12:36:11.594Z,27.73
2018-06-02T12:39:14.697Z,27.15
2018-06-02T12:42:17.775Z,24.75
2018-06-02T12:45:20.885Z,24.33
2018-06-02T12:48:23.968Z,25.77
2018-06-02T12:51:27.149Z,25.73
2018-06-02T12:54:30.222Z,24.45
2018-06-02T12:57:33.349Z,27.55
2018-06-02T13:00:36.445Z,25.92
2018-06-02T13:03:39.542Z,23.87
2018-06-02T13:06:42.646Z,24.73
2018-06-02T13:09:45.703Z,24.60
2018-06-02T13:12:48.808Z,25.83
2018-06-02T13:15:51.886Z,25.98
2018-06-02T13:18:54.958Z,25.50
2018-06-02T13:21:58.051Z,26.12
2018-06-02T13:25:01.139Z,26.62
2018-06-02T13:28:04.239Z,25.95
2018-06-02T13:31:07.311Z,25.58
2018-06-02T13:34:10.406Z,25.37
2018-06-02T13:37:13.496Z,25.08
2018-06-02T13:40:16.592Z,24.20
2018-06-02T13:43:19.670Z,24.60
2018-06-02T13:46:22.835Z,23.15
2018-06-02T13:49:25.878Z,22.42
2018-06-02T13:52:28.962Z,23.12
2018-06-02T13:55:32.819Z,23.75
2018-06-02T13:58:35.911Z,23.02
2018-06-02T14:01:39.820Z,23.87
2018-06-02T14:04:42.887Z,22.50
2018-06-02T14:07:46.098Z,22.02
2018-06-02T14:10:49.167Z,22.92
2018-06-02T14:13:52.278Z,30.00
2018-06-02T14:16:55.355Z,24.00
2018-06-02T14:19:58.422Z,22.73
2018-06-02T14:23:01.519Z,23.83
2018-06-02T14:26:04.593Z,24.05
2018-06-02T14:29:07.696Z,22.70
2018-06-02T14:32:11.538Z,23.05
2018-06-02T14:35:14.639Z,23.15
2018-06-02T14:38:17.725Z,23.80
2018-06-02T14:41:20.849Z,22.17
2018-06-02T14:44:23.919Z,22.60
2018-06-02T14:47:27.017Z,23.12
2018-06-02T14:50:30.091Z,23.83
2018-06-02T14:53:33.179Z,23.92
2018-06-02T14:56:36.263Z,24.95
2018-06-02T14:59:39.358Z,21.83
2018-06-02T15:02:42.438Z,21.58
2018-06-02T15:05:45.529Z,22.17
2018-06-02T15:08:48.598Z,21.92
2018-06-02T15:11:52.514Z,22.35
2018-06-02T15:14:55.579Z,22.13
2018-06-02T15:17:58.662Z,23.92
2018-06-02T15:21:01.784Z,23.58
2018-06-02T15:24:04.854Z,23.55
2018-06-02T15:27:07.943Z,22.40
2018-06-02T15:30:11.052Z,24.35
2018-06-02T15:33:14.107Z,23.60
2018-06-02T15:36:17.228Z,23.80
2018-06-02T15:39:21.062Z,24.77
2018-06-02T15:42:24.159Z,23.42
2018-06-02T15:45:27.245Z,23.25
2018-06-02T15:48:30.465Z,21.65
2018-06-02T15:51:33.520Z,22.87
2018-06-02T15:54:36.690Z,22.08
2018-06-02T15:57:39.776Z,22.80
2018-06-02T16:00:42.880Z,21.15
2018-06-02T16:03:45.960Z,19.77
2018-06-02T16:06:49.830Z,20.20
2018-06-02T16:09:52.921Z,21.60
2018-06-02T16:12:56.049Z,26.12
2018-06-02T16:15:59.100Z,21.05
2018-06-02T16:19:02.196Z,21.00
2018-06-02T16:22:05.276Z,34.92
2018-06-02T16:25:08.374Z,39.35
2018-06-02T16:28:11.459Z,21.85
2018-06-02T16:31:14.556Z,19.80
2018-06-02T16:34:17.695Z,20.58
2018-06-02T16:37:20.724Z,21.35
2018-06-02T16:40:23.814Z,20.65
2018-06-02T16:43:26.911Z,21.52
2018-06-02T16:46:29.985Z,21.02
2018-06-02T16:49:33.089Z,22.15
2018-06-02T16:52:36.310Z,21.70
2018-06-02T16:55:40.223Z,23.33
2018-06-02T16:58:43.270Z,23.02
2018-06-02T17:01:46.370Z,23.23
2018-06-02T17:04:49.455Z,23.05
2018-06-02T17:07:52.578Z,22.85
2018-06-02T17:10:55.639Z,26.08
2018-06-02T17:13:58.752Z,23.38
2018-06-02T17:17:02.603Z,23.25
2018-06-02T17:20:05.784Z,24.45
2018-06-02T17:23:09.693Z,24.60
2018-06-02T17:26:12.786Z,24.37
2018-06-02T17:29:15.866Z,22.85
2018-06-02T17:32:18.955Z,24.48
2018-06-02T17:35:22.026Z,23.95
2018-06-02T17:38:25.132Z,24.08
2018-06-02T17:41:28.219Z,27.75
2018-06-02T17:44:31.317Z,27.40
2018-06-02T17:47:34.394Z,26.05
2018-06-02T17:50:37.477Z,25.08
2018-06-02T17:53:40.554Z,25.83
2018-06-02T17:56:44.424Z,25.25
2018-06-02T17:59:48.259Z,26.30
2018-06-02T18:02:52.117Z,26.67
2018-06-02T18:05:55.206Z,25.30
2018-06-02T18:08:58.370Z,25.15
2018-06-02T18:12:01.462Z,52.30
2018-06-02T18:15:04.557Z,30.67
2018-06-02T18:18:07.637Z,28.35
2018-06-02T18:21:11.483Z,30.70
2018-06-02T18:24:14.556Z,27.65
2018-06-02T18:27:17.655Z,39.08
2018-06-02T18:30:20.731Z,27.42
2018-06-02T18:33:24.391Z,39.67
2018-06-02T18:36:27.604Z,39.60
2018-06-02T18:39:30.744Z,37.97
2018-06-02T18:42:33.821Z,32.10
2018-06-02T18:45:37.219Z,33.72
2018-06-02T18:48:40.313Z,29.90
2018-06-02T18:51:43.461Z,142.05
2018-06-02T18:54:46.507Z,30.60
2018-06-02T18:57:49.747Z,30.85
2018-06-02T19:00:52.798Z,26.95
2018-06-02T19:03:55.917Z,27.67
2018-06-02T19:06:59.750Z,29.45
2018-06-02T19:10:02.858Z,27.52
2018-06-02T19:13:05.922Z,27.00
2018-06-02T19:16:09.024Z,28.67
2018-06-02T19:19:12.184Z,26.65
2018-06-02T19:22:15.256Z,28.05
2018-06-02T19:25:18.327Z,29.05
2018-06-02T19:28:21.428Z,27.52
2018-06-02T19:31:24.675Z,26.60
2018-06-02T19:34:27.780Z,29.25
2018-06-02T19:37:30.861Z,26.70
2018-06-02T19:40:33.951Z,26.20
2018-06-02T19:43:37.019Z,30.90
2018-06-02T19:46:40.151Z,29.83
2018-06-02T19:49:43.285Z,29.25
2018-06-02T19:52:46.351Z,27.50
2018-06-02T19:55:49.443Z,26.40
2018-06-02T19:58:52.554Z,28.02
2018-06-02T20:05:14.387Z,26.20
2018-06-02T20:08:18.229Z,27.40
2018-06-02T20:15:09.158Z,25.15
2018-06-02T20:18:17.476Z,25.55
2018-06-02T20:28:36.023Z,23.83
2018-06-02T20:35:31.410Z,23.77
2018-06-02T20:38:51.774Z,24.87
2018-06-02T20:41:56.946Z,25.17
2018-06-02T20:45:00.038Z,24.20
2018-06-02T20:48:33.078Z,25.30
2018-06-02T20:51:36.506Z,23.07
2018-06-02T20:54:40.055Z,24.10
2018-06-02T20:57:43.686Z,25.45
2018-06-02T21:00:47.335Z,25.15
2018-06-02T21:10:36.086Z,24.87
2018-06-02T21:13:39.963Z,25.70
2018-06-02T21:16:48.431Z,27.47
2018-06-02T21:25:40.352Z,28.00
2018-06-02T21:30:52.850Z,27.70
2018-06-02T21:33:56.545Z,29.07
2018-06-02T21:40:34.662Z,27.57
2018-06-02T21:43:38.294Z,28.53
2018-06-02T21:46:41.962Z,28.07
2018-06-02T21:49:45.607Z,28.47
2018-06-02T21:52:49.236Z,29.10
2018-06-02T21:55:53.782Z,29.67
2018-06-02T21:58:57.391Z,29.37
2018-06-02T22:02:01.047Z,30.50
2018-06-02T22:05:04.664Z,32.23
2018-06-02T22:08:08.299Z,32.73
2018-06-02T22:11:11.947Z,30.63
2018-06-02T22:14:15.647Z,31.63
2018-06-02T22:17:19.249Z,34.23
2018-06-02T22:20:22.999Z,33.17
2018-06-02T22:23:26.612Z,32.67
2018-06-02T22:26:30.271Z,34.00
2018-06-02T22:29:33.890Z,35.77
2018-06-02T22:32:37.566Z,36.00
2018-06-02T22:35:41.010Z,34.67
2018-06-02T22:38:44.569Z,36.57
2018-06-02T22:41:47.995Z,34.90
2018-06-02T22:44:51.575Z,34.83
2018-06-02T22:47:55.203Z,34.77
2018-06-02T22:50:58.881Z,33.77
2018-06-02T22:54:02.542Z,34.30
2018-06-02T22:57:06.527Z,35.20
2018-06-02T23:00:12.561Z,34.67
2018-06-02T23:03:16.190Z,36.57
2018-06-02T23:06:19.801Z,35.80
2018-06-02T23:09:23.443Z,36.87
2018-06-02T23:12:27.051Z,36.33
2018-06-02T23:15:30.689Z,35.50
2018-06-02T23:18:34.319Z,36.43
2018-06-02T23:21:37.952Z,36.87
2018-06-02T23:24:41.391Z,37.77
2018-06-02T23:27:44.932Z,38.93
2018-06-02T23:30:48.601Z,38.00
2018-06-02T23:33:52.002Z,37.63
2018-06-02T23:36:55.522Z,38.93
2018-06-02T23:39:59.177Z,37.93
2018-06-02T23:43:02.869Z,38.93
2018-06-02T23:46:06.509Z,38.73
2018-06-02T23:49:10.154Z,38.70
2018-06-02T23:52:13.722Z,39.80
2018-06-02T23:55:17.242Z,39.17
2018-06-02T23:58:20.964Z,40.80
